sensor_id;sensor_type;location;lat;lon;timestamp;temperature;humidity
43320;DHT22;28914;48.722;9.332;2023-09-30T00:00:56;19.50;67.60
43320;DHT22;28914;48.722;9.332;2023-09-30T00:06:16;19.50;67.70
43320;DHT22;28914;48.722;9.332;2023-09-30T00:11:35;19.50;68.30
43320;DHT22;28914;48.722;9.332;2023-09-30T00:16:55;19.50;68.10
43320;DHT22;28914;48.722;9.332;2023-09-30T00:22:14;19.50;68.10
43320;DHT22;28914;48.722;9.332;2023-09-30T00:27:33;19.40;68.30
43320;DHT22;28914;48.722;9.332;2023-09-30T00:32:52;19.40;68.30
43320;DHT22;28914;48.722;9.332;2023-09-30T00:38:12;19.30;68.50
43320;DHT22;28914;48.722;9.332;2023-09-30T00:43:31;19.20;68.50
43320;DHT22;28914;48.722;9.332;2023-09-30T00:48:51;19.10;68.70
43320;DHT22;28914;48.722;9.332;2023-09-30T00:54:11;19.10;68.80
43320;DHT22;28914;48.722;9.332;2023-09-30T00:59:33;19.00;69.00
43320;DHT22;28914;48.722;9.332;2023-09-30T01:04:52;19.00;69.20
43320;DHT22;28914;48.722;9.332;2023-09-30T01:10:12;18.80;69.10
43320;DHT22;28914;48.722;9.332;2023-09-30T01:15:32;18.80;69.40
43320;DHT22;28914;48.722;9.332;2023-09-30T01:20:52;18.70;69.80
43320;DHT22;28914;48.722;9.332;2023-09-30T01:26:12;18.60;70.10
43320;DHT22;28914;48.722;9.332;2023-09-30T01:31:32;18.60;70.40
43320;DHT22;28914;48.722;9.332;2023-09-30T01:36:51;18.50;70.80
43320;DHT22;28914;48.722;9.332;2023-09-30T01:42:10;18.50;70.80
43320;DHT22;28914;48.722;9.332;2023-09-30T01:47:29;18.40;71.00
43320;DHT22;28914;48.722;9.332;2023-09-30T01:52:48;18.50;71.30
43320;DHT22;28914;48.722;9.332;2023-09-30T01:58:07;18.50;71.60
43320;DHT22;28914;48.722;9.332;2023-09-30T02:03:29;18.50;72.00
43320;DHT22;28914;48.722;9.332;2023-09-30T02:08:48;18.50;72.10
43320;DHT22;28914;48.722;9.332;2023-09-30T02:14:09;18.50;72.30
43320;DHT22;28914;48.722;9.332;2023-09-30T02:19:30;18.50;72.10
43320;DHT22;28914;48.722;9.332;2023-09-30T02:24:50;18.40;72.10
43320;DHT22;28914;48.722;9.332;2023-09-30T02:30:10;18.40;72.10
43320;DHT22;28914;48.722;9.332;2023-09-30T02:35:30;18.30;72.20
43320;DHT22;28914;48.722;9.332;2023-09-30T02:40:49;18.20;72.50
43320;DHT22;28914;48.722;9.332;2023-09-30T02:46:10;18.10;72.40
43320;DHT22;28914;48.722;9.332;2023-09-30T02:51:31;18.10;74.00
43320;DHT22;28914;48.722;9.332;2023-09-30T02:56:50;17.90;74.70
43320;DHT22;28914;48.722;9.332;2023-09-30T03:02:11;17.80;74.00
43320;DHT22;28914;48.722;9.332;2023-09-30T03:07:30;17.80;74.20
43320;DHT22;28914;48.722;9.332;2023-09-30T03:12:56;17.80;74.60
43320;DHT22;28914;48.722;9.332;2023-09-30T03:18:20;17.80;74.80
43320;DHT22;28914;48.722;9.332;2023-09-30T03:23:45;17.80;74.80
43320;DHT22;28914;48.722;9.332;2023-09-30T03:29:05;17.90;75.00
43320;DHT22;28914;48.722;9.332;2023-09-30T03:34:25;18.00;75.00
43320;DHT22;28914;48.722;9.332;2023-09-30T03:39:44;18.20;75.10
43320;DHT22;28914;48.722;9.332;2023-09-30T03:45:06;18.20;75.00
43320;DHT22;28914;48.722;9.332;2023-09-30T03:50:28;18.30;75.00
43320;DHT22;28914;48.722;9.332;2023-09-30T03:55:48;18.30;75.20
43320;DHT22;28914;48.722;9.332;2023-09-30T04:01:09;18.30;75.20
43320;DHT22;28914;48.722;9.332;2023-09-30T04:06:32;18.30;75.60
43320;DHT22;28914;48.722;9.332;2023-09-30T04:11:52;18.30;75.20
43320;DHT22;28914;48.722;9.332;2023-09-30T04:17:11;18.20;75.00
43320;DHT22;28914;48.722;9.332;2023-09-30T04:22:31;18.10;75.20
43320;DHT22;28914;48.722;9.332;2023-09-30T04:27:51;18.10;75.20
43320;DHT22;28914;48.722;9.332;2023-09-30T04:33:11;18.00;75.50
43320;DHT22;28914;48.722;9.332;2023-09-30T04:38:32;18.00;75.70
43320;DHT22;28914;48.722;9.332;2023-09-30T04:43:51;18.00;75.70
43320;DHT22;28914;48.722;9.332;2023-09-30T04:49:14;18.00;75.70
43320;DHT22;28914;48.722;9.332;2023-09-30T04:54:33;17.90;76.40
43320;DHT22;28914;48.722;9.332;2023-09-30T04:59:54;17.90;76.00
43320;DHT22;28914;48.722;9.332;2023-09-30T05:05:14;17.90;76.90
43320;DHT22;28914;48.722;9.332;2023-09-30T05:10:33;17.80;77.00
43320;DHT22;28914;48.722;9.332;2023-09-30T05:15:53;17.80;76.80
43320;DHT22;28914;48.722;9.332;2023-09-30T05:21:12;17.80;77.00
43320;DHT22;28914;48.722;9.332;2023-09-30T05:26:31;17.80;77.50
43320;DHT22;28914;48.722;9.332;2023-09-30T05:31:51;17.90;77.80
43320;DHT22;28914;48.722;9.332;2023-09-30T05:37:11;17.90;78.10
43320;DHT22;28914;48.722;9.332;2023-09-30T05:42:31;18.00;77.70
43320;DHT22;28914;48.722;9.332;2023-09-30T05:47:50;18.00;77.70
43320;DHT22;28914;48.722;9.332;2023-09-30T05:53:11;18.20;78.00
43320;DHT22;28914;48.722;9.332;2023-09-30T05:58:30;18.20;77.70
43320;DHT22;28914;48.722;9.332;2023-09-30T06:03:50;18.30;77.50
43320;DHT22;28914;48.722;9.332;2023-09-30T06:09:09;18.40;77.60
43320;DHT22;28914;48.722;9.332;2023-09-30T06:14:29;18.50;77.60
43320;DHT22;28914;48.722;9.332;2023-09-30T06:19:49;18.60;77.80
43320;DHT22;28914;48.722;9.332;2023-09-30T06:25:09;18.70;77.60
43320;DHT22;28914;48.722;9.332;2023-09-30T06:30:28;18.80;77.50
43320;DHT22;28914;48.722;9.332;2023-09-30T06:35:52;18.90;77.40
43320;DHT22;28914;48.722;9.332;2023-09-30T06:41:16;19.00;77.50
43320;DHT22;28914;48.722;9.332;2023-09-30T06:46:36;19.20;77.40
43320;DHT22;28914;48.722;9.332;2023-09-30T06:51:56;19.30;77.10
43320;DHT22;28914;48.722;9.332;2023-09-30T06:57:16;19.40;76.90
43320;DHT22;28914;48.722;9.332;2023-09-30T07:02:36;19.60;77.10
43320;DHT22;28914;48.722;9.332;2023-09-30T07:07:55;19.90;77.10
43320;DHT22;28914;48.722;9.332;2023-09-30T07:13:15;20.20;76.80
43320;DHT22;28914;48.722;9.332;2023-09-30T07:18:34;20.50;76.10
43320;DHT22;28914;48.722;9.332;2023-09-30T07:23:53;20.70;75.70
43320;DHT22;28914;48.722;9.332;2023-09-30T07:29:13;20.90;75.10
43320;DHT22;28914;48.722;9.332;2023-09-30T07:34:32;21.10;74.80
43320;DHT22;28914;48.722;9.332;2023-09-30T07:39:51;21.40;74.50
43320;DHT22;28914;48.722;9.332;2023-09-30T07:45:11;21.70;74.20
43320;DHT22;28914;48.722;9.332;2023-09-30T07:50:38;22.00;73.50
43320;DHT22;28914;48.722;9.332;2023-09-30T07:55:58;22.40;72.80
43320;DHT22;28914;48.722;9.332;2023-09-30T08:01:17;22.70;72.30
43320;DHT22;28914;48.722;9.332;2023-09-30T08:06:37;23.00;71.50
43320;DHT22;28914;48.722;9.332;2023-09-30T08:11:56;23.30;70.50
43320;DHT22;28914;48.722;9.332;2023-09-30T08:17:15;23.40;69.00
43320;DHT22;28914;48.722;9.332;2023-09-30T08:22:36;23.50;68.00
43320;DHT22;28914;48.722;9.332;2023-09-30T08:27:55;23.70;68.40
43320;DHT22;28914;48.722;9.332;2023-09-30T08:33:14;24.00;67.50
43320;DHT22;28914;48.722;9.332;2023-09-30T08:38:38;24.50;68.10
43320;DHT22;28914;48.722;9.332;2023-09-30T08:44:00;25.40;66.00
43320;DHT22;28914;48.722;9.332;2023-09-30T08:49:20;26.50;66.50
43320;DHT22;28914;48.722;9.332;2023-09-30T08:54:40;27.60;60.70
43320;DHT22;28914;48.722;9.332;2023-09-30T08:59:59;27.80;57.30
43320;DHT22;28914;48.722;9.332;2023-09-30T09:05:19;27.60;57.70
43320;DHT22;28914;48.722;9.332;2023-09-30T09:10:58;27.40;58.10
43320;DHT22;28914;48.722;9.332;2023-09-30T09:16:18;27.40;57.30
43320;DHT22;28914;48.722;9.332;2023-09-30T09:21:56;27.10;57.20
43320;DHT22;28914;48.722;9.332;2023-09-30T09:27:16;26.80;57.20
43320;DHT22;28914;48.722;9.332;2023-09-30T09:32:35;26.60;58.30
43320;DHT22;28914;48.722;9.332;2023-09-30T09:43:15;26.80;58.80
43320;DHT22;28914;48.722;9.332;2023-09-30T09:48:36;27.30;57.90
43320;DHT22;28914;48.722;9.332;2023-09-30T09:53:55;27.70;57.50
43320;DHT22;28914;48.722;9.332;2023-09-30T09:59:15;28.30;56.90
43320;DHT22;28914;48.722;9.332;2023-09-30T10:04:34;29.80;58.10
43320;DHT22;28914;48.722;9.332;2023-09-30T10:09:55;31.90;58.50
43320;DHT22;28914;48.722;9.332;2023-09-30T10:20:46;36.00;47.30
43320;DHT22;28914;48.722;9.332;2023-09-30T10:31:49;38.80;42.20
43320;DHT22;28914;48.722;9.332;2023-09-30T10:37:23;39.90;41.60
43320;DHT22;28914;48.722;9.332;2023-09-30T10:42:48;40.30;38.80
43320;DHT22;28914;48.722;9.332;2023-09-30T10:53:48;41.80;38.30
43320;DHT22;28914;48.722;9.332;2023-09-30T10:59:10;42.40;35.60
43320;DHT22;28914;48.722;9.332;2023-09-30T11:04:29;42.90;36.20
43320;DHT22;28914;48.722;9.332;2023-09-30T11:09:49;43.40;36.10
43320;DHT22;28914;48.722;9.332;2023-09-30T11:15:09;43.80;34.90
43320;DHT22;28914;48.722;9.332;2023-09-30T11:20:28;44.10;34.30
43320;DHT22;28914;48.722;9.332;2023-09-30T11:25:49;43.80;33.40
43320;DHT22;28914;48.722;9.332;2023-09-30T11:31:10;42.40;30.00
43320;DHT22;28914;48.722;9.332;2023-09-30T11:36:31;40.30;32.00
43320;DHT22;28914;48.722;9.332;2023-09-30T11:41:54;38.60;33.10
43320;DHT22;28914;48.722;9.332;2023-09-30T11:47:15;36.90;34.40
43320;DHT22;28914;48.722;9.332;2023-09-30T11:52:35;35.50;35.60
43320;DHT22;28914;48.722;9.332;2023-09-30T11:57:55;34.20;36.40
43320;DHT22;28914;48.722;9.332;2023-09-30T12:03:14;33.20;36.90
43320;DHT22;28914;48.722;9.332;2023-09-30T12:08:33;32.10;38.70
43320;DHT22;28914;48.722;9.332;2023-09-30T12:13:52;31.30;38.60
43320;DHT22;28914;48.722;9.332;2023-09-30T12:19:12;30.50;39.90
43320;DHT22;28914;48.722;9.332;2023-09-30T12:24:32;30.10;40.80
43320;DHT22;28914;48.722;9.332;2023-09-30T12:29:51;29.80;41.20
43320;DHT22;28914;48.722;9.332;2023-09-30T12:35:10;29.40;41.60
43320;DHT22;28914;48.722;9.332;2023-09-30T12:40:30;29.10;41.90
43320;DHT22;28914;48.722;9.332;2023-09-30T12:45:49;28.80;42.10
43320;DHT22;28914;48.722;9.332;2023-09-30T12:51:09;28.50;42.10
43320;DHT22;28914;48.722;9.332;2023-09-30T12:56:29;28.40;43.00
43320;DHT22;28914;48.722;9.332;2023-09-30T13:01:48;28.30;43.60
43320;DHT22;28914;48.722;9.332;2023-09-30T13:07:07;28.30;43.80
43320;DHT22;28914;48.722;9.332;2023-09-30T13:12:27;28.20;44.00
43320;DHT22;28914;48.722;9.332;2023-09-30T13:17:46;28.20;44.20
43320;DHT22;28914;48.722;9.332;2023-09-30T13:23:05;28.20;44.20
43320;DHT22;28914;48.722;9.332;2023-09-30T13:28:24;28.00;43.90
43320;DHT22;28914;48.722;9.332;2023-09-30T13:33:46;27.90;43.90
43320;DHT22;28914;48.722;9.332;2023-09-30T13:39:06;27.60;43.90
43320;DHT22;28914;48.722;9.332;2023-09-30T13:44:25;27.30;44.10
43320;DHT22;28914;48.722;9.332;2023-09-30T13:49:44;27.10;44.40
43320;DHT22;28914;48.722;9.332;2023-09-30T13:55:05;26.80;44.60
43320;DHT22;28914;48.722;9.332;2023-09-30T14:00:25;26.70;44.90
43320;DHT22;28914;48.722;9.332;2023-09-30T14:05:45;26.50;45.30
43320;DHT22;28914;48.722;9.332;2023-09-30T14:11:05;26.50;46.00
43320;DHT22;28914;48.722;9.332;2023-09-30T14:16:24;26.50;46.00
43320;DHT22;28914;48.722;9.332;2023-09-30T14:21:44;26.50;46.20
43320;DHT22;28914;48.722;9.332;2023-09-30T14:27:05;26.40;46.00
43320;DHT22;28914;48.722;9.332;2023-09-30T14:32:24;26.40;46.00
43320;DHT22;28914;48.722;9.332;2023-09-30T14:37:43;26.40;46.00
43320;DHT22;28914;48.722;9.332;2023-09-30T14:43:03;26.30;46.20
43320;DHT22;28914;48.722;9.332;2023-09-30T14:48:24;26.20;46.30
43320;DHT22;28914;48.722;9.332;2023-09-30T14:53:43;26.10;46.50
43320;DHT22;28914;48.722;9.332;2023-09-30T14:59:03;26.00;46.80
43320;DHT22;28914;48.722;9.332;2023-09-30T15:04:23;25.80;46.90
43320;DHT22;28914;48.722;9.332;2023-09-30T15:09:43;25.70;47.20
43320;DHT22;28914;48.722;9.332;2023-09-30T15:15:02;25.60;47.40
43320;DHT22;28914;48.722;9.332;2023-09-30T15:20:22;25.60;47.50
43320;DHT22;28914;48.722;9.332;2023-09-30T15:25:44;25.50;47.80
43320;DHT22;28914;48.722;9.332;2023-09-30T15:31:03;25.40;47.90
43320;DHT22;28914;48.722;9.332;2023-09-30T15:36:23;25.30;47.90
43320;DHT22;28914;48.722;9.332;2023-09-30T15:41:42;25.10;48.00
43320;DHT22;28914;48.722;9.332;2023-09-30T15:47:06;25.00;48.10
43320;DHT22;28914;48.722;9.332;2023-09-30T15:52:26;25.00;48.40
43320;DHT22;28914;48.722;9.332;2023-09-30T15:57:45;24.80;48.60
43320;DHT22;28914;48.722;9.332;2023-09-30T16:03:05;24.70;48.80
43320;DHT22;28914;48.722;9.332;2023-09-30T16:08:25;24.60;49.00
43320;DHT22;28914;48.722;9.332;2023-09-30T16:13:44;24.50;49.10
43320;DHT22;28914;48.722;9.332;2023-09-30T16:19:04;24.40;49.30
43320;DHT22;28914;48.722;9.332;2023-09-30T16:24:23;24.30;49.50
43320;DHT22;28914;48.722;9.332;2023-09-30T16:29:42;24.20;49.90
43320;DHT22;28914;48.722;9.332;2023-09-30T16:35:01;24.10;50.20
43320;DHT22;28914;48.722;9.332;2023-09-30T16:40:21;23.90;50.20
43320;DHT22;28914;48.722;9.332;2023-09-30T16:45:41;23.80;51.00
43320;DHT22;28914;48.722;9.332;2023-09-30T16:51:01;23.60;51.40
43320;DHT22;28914;48.722;9.332;2023-09-30T16:56:22;23.40;51.60
43320;DHT22;28914;48.722;9.332;2023-09-30T17:01:41;23.20;51.80
43320;DHT22;28914;48.722;9.332;2023-09-30T17:07:00;22.90;52.40
43320;DHT22;28914;48.722;9.332;2023-09-30T17:12:19;22.70;52.30
43320;DHT22;28914;48.722;9.332;2023-09-30T17:17:39;22.50;52.80
43320;DHT22;28914;48.722;9.332;2023-09-30T17:22:58;22.30;53.20
43320;DHT22;28914;48.722;9.332;2023-09-30T17:28:19;22.20;53.40
43320;DHT22;28914;48.722;9.332;2023-09-30T17:33:41;22.00;54.00
43320;DHT22;28914;48.722;9.332;2023-09-30T17:39:00;21.80;54.10
43320;DHT22;28914;48.722;9.332;2023-09-30T17:44:20;21.50;54.60
43320;DHT22;28914;48.722;9.332;2023-09-30T17:49:40;21.40;55.00
43320;DHT22;28914;48.722;9.332;2023-09-30T17:54:59;21.20;55.30
43320;DHT22;28914;48.722;9.332;2023-09-30T18:00:19;21.00;55.60
43320;DHT22;28914;48.722;9.332;2023-09-30T18:05:38;20.80;55.80
43320;DHT22;28914;48.722;9.332;2023-09-30T18:10:57;20.70;56.10
43320;DHT22;28914;48.722;9.332;2023-09-30T18:16:17;20.60;56.30
43320;DHT22;28914;48.722;9.332;2023-09-30T18:21:36;20.50;56.30
43320;DHT22;28914;48.722;9.332;2023-09-30T18:26:55;20.40;56.60
43320;DHT22;28914;48.722;9.332;2023-09-30T18:32:14;20.30;56.90
43320;DHT22;28914;48.722;9.332;2023-09-30T18:37:34;20.10;57.20
43320;DHT22;28914;48.722;9.332;2023-09-30T18:42:53;20.10;57.60
43320;DHT22;28914;48.722;9.332;2023-09-30T18:48:14;19.90;57.90
43320;DHT22;28914;48.722;9.332;2023-09-30T18:53:35;19.70;58.10
43320;DHT22;28914;48.722;9.332;2023-09-30T18:58:55;19.60;58.30
43320;DHT22;28914;48.722;9.332;2023-09-30T19:04:15;19.40;58.40
43320;DHT22;28914;48.722;9.332;2023-09-30T19:09:35;19.30;58.90
43320;DHT22;28914;48.722;9.332;2023-09-30T19:14:54;19.10;59.30
43320;DHT22;28914;48.722;9.332;2023-09-30T19:20:13;19.00;59.50
43320;DHT22;28914;48.722;9.332;2023-09-30T19:25:33;18.80;59.70
43320;DHT22;28914;48.722;9.332;2023-09-30T19:30:52;18.70;60.10
43320;DHT22;28914;48.722;9.332;2023-09-30T19:36:12;18.50;61.00
43320;DHT22;28914;48.722;9.332;2023-09-30T19:41:32;18.40;60.50
43320;DHT22;28914;48.722;9.332;2023-09-30T19:46:58;18.30;61.00
43320;DHT22;28914;48.722;9.332;2023-09-30T19:52:17;18.10;61.50
43320;DHT22;28914;48.722;9.332;2023-09-30T19:57:36;18.00;61.90
43320;DHT22;28914;48.722;9.332;2023-09-30T20:02:55;17.90;62.10
43320;DHT22;28914;48.722;9.332;2023-09-30T20:08:15;17.80;62.30
43320;DHT22;28914;48.722;9.332;2023-09-30T20:13:34;17.60;62.80
43320;DHT22;28914;48.722;9.332;2023-09-30T20:18:55;17.60;63.60
43320;DHT22;28914;48.722;9.332;2023-09-30T20:24:14;17.50;63.90
43320;DHT22;28914;48.722;9.332;2023-09-30T20:29:34;17.40;64.50
43320;DHT22;28914;48.722;9.332;2023-09-30T20:34:53;17.30;65.40
43320;DHT22;28914;48.722;9.332;2023-09-30T20:40:12;17.20;65.20
43320;DHT22;28914;48.722;9.332;2023-09-30T20:45:32;17.10;65.10
43320;DHT22;28914;48.722;9.332;2023-09-30T20:50:51;17.00;65.50
43320;DHT22;28914;48.722;9.332;2023-09-30T20:56:12;16.90;65.50
43320;DHT22;28914;48.722;9.332;2023-09-30T21:01:31;16.80;65.70
43320;DHT22;28914;48.722;9.332;2023-09-30T21:06:51;16.70;66.00
43320;DHT22;28914;48.722;9.332;2023-09-30T21:12:10;16.70;66.10
43320;DHT22;28914;48.722;9.332;2023-09-30T21:17:32;16.60;66.30
43320;DHT22;28914;48.722;9.332;2023-09-30T21:22:51;16.50;67.80
43320;DHT22;28914;48.722;9.332;2023-09-30T21:28:11;16.50;67.50
43320;DHT22;28914;48.722;9.332;2023-09-30T21:33:30;16.40;67.30
43320;DHT22;28914;48.722;9.332;2023-09-30T21:38:49;16.30;67.40
43320;DHT22;28914;48.722;9.332;2023-09-30T21:44:08;16.20;67.30
43320;DHT22;28914;48.722;9.332;2023-09-30T21:49:27;16.20;67.70
43320;DHT22;28914;48.722;9.332;2023-09-30T21:54:47;16.10;67.70
43320;DHT22;28914;48.722;9.332;2023-09-30T22:00:06;16.10;68.20
43320;DHT22;28914;48.722;9.332;2023-09-30T22:05:32;16.00;69.20
43320;DHT22;28914;48.722;9.332;2023-09-30T22:10:53;16.00;69.10
43320;DHT22;28914;48.722;9.332;2023-09-30T22:16:12;15.90;69.70
43320;DHT22;28914;48.722;9.332;2023-09-30T22:21:32;15.80;69.50
43320;DHT22;28914;48.722;9.332;2023-09-30T22:26:51;15.80;69.50
43320;DHT22;28914;48.722;9.332;2023-09-30T22:32:10;15.70;69.60
43320;DHT22;28914;48.722;9.332;2023-09-30T22:37:29;15.70;69.80
43320;DHT22;28914;48.722;9.332;2023-09-30T22:42:49;15.60;69.90
43320;DHT22;28914;48.722;9.332;2023-09-30T22:48:08;15.50;70.80
43320;DHT22;28914;48.722;9.332;2023-09-30T22:53:28;15.40;70.00
43320;DHT22;28914;48.722;9.332;2023-09-30T22:58:48;15.40;71.10
43320;DHT22;28914;48.722;9.332;2023-09-30T23:04:08;15.30;71.50
43320;DHT22;28914;48.722;9.332;2023-09-30T23:09:29;15.30;71.10
43320;DHT22;28914;48.722;9.332;2023-09-30T23:14:48;15.20;71.20
43320;DHT22;28914;48.722;9.332;2023-09-30T23:20:12;15.20;71.70
43320;DHT22;28914;48.722;9.332;2023-09-30T23:25:34;15.10;71.50
43320;DHT22;28914;48.722;9.332;2023-09-30T23:30:54;15.10;72.50
43320;DHT22;28914;48.722;9.332;2023-09-30T23:36:13;15.00;71.60
43320;DHT22;28914;48.722;9.332;2023-09-30T23:41:32;15.00;71.70
43320;DHT22;28914;48.722;9.332;2023-09-30T23:46:51;14.90;71.80
43320;DHT22;28914;48.722;9.332;2023-09-30T23:52:11;14.80;71.90
43320;DHT22;28914;48.722;9.332;2023-09-30T23:57:30;14.80;72.80
